Time;durP1;ratioP1;P1;durP2;ratioP2;P2;SDS_P1;SDS_P2;PMS_P1;PMS_P2;Temp;Humidity;BMP_temperature;BMP_pressure;BME280_temperature;BME280_humidity;BME280_pressure;Samples;Min_cycle;Max_cycle;Signal;HPM_P1;HPM_P2
2023/03/27 14:28:50;;;;;;;4.82;1.50;;;;;;;19.06;55.26;102263.97;5068832;28;20407;-67
2023/03/27 14:45:36;;;;;;;3.35;1.30;;;;;;;19.83;52.50;102309.84;5129706;27;20325;-67
2023/03/27 14:48:08;;;;;;;6.38;1.70;;;;;;;19.91;52.13;102310.50;5108729;28;20433;-64
2023/03/27 14:53:25;;;;;;;4.45;1.23;;;;;;;14.31;40.07;102298.78;5136661;27;20120;-70
2023/03/27 14:55:53;;;;;;;2.53;0.77;;;;;;;11.59;44.84;102296.53;5105094;28;20029;-70
2023/03/27 14:58:21;;;;;;;3.95;1.00;;;;;;;9.79;48.45;102297.13;5088000;28;20020;-71
2023/03/27 15:00:53;;;;;;;5.13;1.98;;;;;;;8.66;50.76;102301.31;5070884;28;20032;-70
2023/03/27 15:03:22;;;;;;;4.60;1.20;;;;;;;7.94;53.63;102302.38;5082867;28;20391;-70
2023/03/27 15:06:12;;;;;;;6.00;1.42;;;;;;;7.34;56.37;102306.16;5079800;28;20040;-70
2023/03/27 15:08:38;;;;;;;4.25;1.48;;;;;;;6.84;59.59;102302.28;5086389;28;20082;-70
2023/03/27 15:11:11;;;;;;;5.70;1.40;;;;;;;6.57;61.44;102303.28;5062463;28;20029;-69
2023/03/27 15:13:36;;;;;;;5.10;1.60;;;;;;;6.23;61.69;102301.41;5075707;28;20443;-69
2023/03/27 15:16:05;;;;;;;7.10;1.63;;;;;;;6.00;63.19;102303.31;5077233;28;20033;-69
2023/03/27 15:18:49;;;;;;;10.13;1.60;;;;;;;5.90;63.17;102304.72;5069701;28;20029;-69
2023/03/27 15:21:33;;;;;;;5.72;1.65;;;;;;;5.83;59.84;102311.47;5080574;28;20507;-68
2023/03/27 15:24:39;;;;;;;4.65;1.35;;;;;;;5.73;59.01;102312.91;5084457;28;20028;-70
2023/03/27 15:27:15;;;;;;;5.78;0.98;;;;;;;5.69;58.24;102317.97;5084428;28;20104;-69
2023/03/27 15:29:56;;;;;;;5.68;1.20;;;;;;;5.62;55.88;102318.59;5085855;28;20024;-75
2023/03/27 15:32:27;;;;;;;6.20;1.52;;;;;;;5.60;58.74;102321.13;5084430;28;20024;-76
2023/03/27 15:34:57;;;;;;;7.57;1.60;;;;;;;5.64;56.93;102314.31;5072662;28;20034;-76
2023/03/27 15:37:27;;;;;;;8.27;1.60;;;;;;;5.59;56.92;102321.06;5084312;28;20499;-77
2023/03/27 15:40:09;;;;;;;7.55;1.52;;;;;;;5.61;57.10;102317.69;5084771;28;20058;-77
2023/03/27 15:42:47;;;;;;;7.60;1.70;;;;;;;5.54;56.94;102319.19;5086503;28;20103;-75
2023/03/27 15:45:15;;;;;;;7.53;1.27;;;;;;;5.57;57.09;102320.16;5084647;28;20403;-77
2023/03/27 15:47:41;;;;;;;7.13;1.52;;;;;;;5.60;57.63;102335.84;5084963;28;20024;-75
2023/03/27 15:50:22;;;;;;;8.07;1.27;;;;;;;5.71;58.51;102331.88;5084697;28;20031;-77
2023/03/27 15:52:53;;;;;;;5.38;1.80;;;;;;;5.81;58.07;102344.34;5071785;28;20139;-76
2023/03/27 15:55:43;;;;;;;9.80;1.73;;;;;;;5.88;63.49;102343.69;5080830;28;20035;-68
2023/03/27 15:58:15;;;;;;;6.07;1.73;;;;;;;5.83;64.22;102345.28;5085586;28;20028;-68
2023/03/27 16:00:49;;;;;;;5.07;1.30;;;;;;;5.83;65.59;102342.69;5085904;28;20036;-69
2023/03/27 16:03:22;;;;;;;3.50;1.00;;;;;;;5.72;63.45;102339.72;5077440;28;20032;-70
2023/03/27 16:05:51;;;;;;;5.45;1.70;;;;;;;5.66;64.75;102344.75;5069898;28;20040;-70
2023/03/27 16:08:39;;;;;;;6.30;1.30;;;;;;;5.61;63.93;102335.03;5072681;28;20028;-70
2023/03/27 16:11:05;;;;;;;6.85;1.58;;;;;;;5.51;64.91;102332.09;5067289;28;20034;-70
2023/03/27 16:13:41;;;;;;;3.85;1.35;;;;;;;5.50;65.21;102348.56;5050962;28;20060;-70
2023/03/27 16:16:26;;;;;;;7.90;1.70;;;;;;;5.61;65.95;102337.63;5068965;28;20048;-69
2023/03/27 16:18:57;;;;;;;14.82;7.13;;;;;;;5.62;61.03;102329.00;5062445;28;20025;-70
2023/03/27 16:21:25;;;;;;;4.85;1.30;;;;;;;5.66;60.56;102333.44;5070569;28;20024;-69
2023/03/27 16:23:51;;;;;;;6.70;1.65;;;;;;;5.73;58.34;102333.69;5068454;28;20024;-69
2023/03/27 16:26:22;;;;;;;9.65;1.98;;;;;;;5.84;59.49;102348.78;5052073;28;20110;-70
2023/03/27 16:28:48;;;;;;;4.63;1.20;;;;;;;5.75;54.09;102335.44;5068336;28;20043;-70
2023/03/27 16:31:18;;;;;;;6.55;1.13;;;;;;;5.68;52.52;102343.06;5050988;28;20029;-77
2023/03/27 16:33:44;;;;;;;4.23;0.97;;;;;;;5.61;53.69;102335.03;5069828;28;20028;-78
2023/03/27 16:36:16;;;;;;;9.07;1.50;;;;;;;5.54;54.68;102340.00;5053542;28;20890;-77
2023/03/27 16:38:42;;;;;;;9.75;1.63;;;;;;;5.49;55.16;102349.38;5065783;28;20116;-77
2023/03/27 16:41:16;;;;;;;7.70;1.83;;;;;;;5.48;56.09;102351.94;5067645;28;20028;-77
2023/03/27 16:43:43;;;;;;;9.45;1.80;;;;;;;5.40;55.71;102350.78;5071194;28;20025;-69
2023/03/27 16:46:21;;;;;;;4.78;1.05;;;;;;;5.35;57.34;102355.84;5051380;28;20531;-69
2023/03/27 16:48:47;;;;;;;7.07;1.38;;;;;;;5.27;57.69;102359.88;5059058;28;20036;-69
2023/03/27 16:51:12;;;;;;;10.80;1.70;;;;;;;5.14;56.25;102359.47;5052364;28;20039;-67
2023/03/27 16:53:38;;;;;;;7.90;1.75;;;;;;;5.01;57.40;102362.44;5035237;28;20036;-68
2023/03/27 16:56:04;;;;;;;8.38;2.03;;;;;;;4.94;58.50;102368.25;5038012;28;20023;-70
2023/03/27 16:58:30;;;;;;;7.57;1.77;;;;;;;4.83;59.14;102376.53;5070972;28;20574;-68
2023/03/27 17:00:56;;;;;;;9.68;1.73;;;;;;;4.76;60.17;102381.47;5051454;28;20021;-69
2023/03/27 17:03:21;;;;;;;6.55;1.40;;;;;;;4.71;58.95;102381.28;5054274;28;20422;-68
2023/03/27 17:05:47;;;;;;;9.05;1.80;;;;;;;4.71;60.39;102377.81;5052085;28;20040;-69
2023/03/27 17:08:15;;;;;;;8.27;1.70;;;;;;;4.66;61.27;102385.44;5069493;28;20457;-68
2023/03/27 17:10:44;;;;;;;8.70;1.52;;;;;;;4.61;60.51;102386.97;5040246;28;20070;-68
2023/03/27 17:13:10;;;;;;;11.38;2.00;;;;;;;4.57;61.68;102385.06;5037605;28;20060;-69
2023/03/27 17:15:37;;;;;;;12.82;2.15;;;;;;;4.51;61.21;102390.91;5041700;28;20067;-68
2023/03/27 17:18:04;;;;;;;7.93;1.85;;;;;;;4.43;61.78;102392.34;5069948;28;20028;-69
2023/03/27 17:20:29;;;;;;;5.65;1.20;;;;;;;4.38;60.91;102399.94;5066425;28;20759;-68
2023/03/27 17:22:57;;;;;;;4.63;0.98;;;;;;;4.29;59.77;102403.06;5053704;28;20024;-68
2023/03/27 17:25:22;;;;;;;5.28;1.30;;;;;;;4.29;59.72;102409.97;5057435;28;20036;-68
2023/03/27 17:27:49;;;;;;;6.28;1.10;;;;;;;4.28;61.32;102409.09;5053590;28;20541;-74
2023/03/27 17:30:14;;;;;;;9.20;1.63;;;;;;;4.24;62.62;102419.28;5041301;28;20059;-76
2023/03/27 17:32:40;;;;;;;8.02;2.10;;;;;;;4.21;63.42;102416.56;5053228;28;20500;-75
2023/03/27 17:35:05;;;;;;;7.03;1.70;;;;;;;4.13;65.08;102418.88;5050468;28;20098;-75
2023/03/27 17:37:35;;;;;;;7.57;1.83;;;;;;;4.06;64.20;102415.13;5047322;28;20064;-77
2023/03/27 17:40:01;;;;;;;9.60;2.40;;;;;;;3.99;64.62;102424.38;5053907;28;20077;-76
2023/03/27 17:42:26;;;;;;;9.75;2.25;;;;;;;3.91;65.60;102427.50;5054515;28;20552;-74
2023/03/27 17:44:51;;;;;;;9.45;2.30;;;;;;;3.81;65.78;102424.50;5052220;28;20033;-75
2023/03/27 17:47:17;;;;;;;8.32;1.85;;;;;;;3.77;65.74;102430.38;5052254;28;20123;-77
2023/03/27 17:49:43;;;;;;;9.43;2.22;;;;;;;3.69;65.57;102436.94;5070581;28;20044;-75
2023/03/27 17:52:10;;;;;;;8.80;2.38;;;;;;;3.62;66.10;102440.09;5052576;28;20052;-76
2023/03/27 17:54:36;;;;;;;9.52;2.03;;;;;;;3.56;66.60;102440.75;5070529;28;20440;-75
2023/03/27 17:57:02;;;;;;;11.50;2.13;;;;;;;3.51;66.67;102441.38;5052306;28;20037;-75
2023/03/27 17:59:29;;;;;;;10.75;1.80;;;;;;;3.45;65.22;102442.88;5044835;28;20444;-75
2023/03/27 18:01:56;;;;;;;9.05;2.13;;;;;;;3.42;64.83;102437.56;5069558;28;20020;-76
2023/03/27 18:04:22;;;;;;;6.30;1.95;;;;;;;3.39;65.67;102441.72;5053631;28;20036;-77
2023/03/27 18:06:47;;;;;;;9.48;2.03;;;;;;;3.33;64.99;102444.91;5038801;28;20235;-76
2023/03/27 18:09:13;;;;;;;8.85;2.03;;;;;;;3.30;64.18;102449.97;5035842;28;20029;-76
2023/03/27 18:11:38;;;;;;;9.82;1.80;;;;;;;3.25;64.60;102456.66;5036112;28;20039;-76
2023/03/27 18:14:04;;;;;;;7.30;1.90;;;;;;;3.23;64.91;102461.78;5053380;28;20071;-75
2023/03/27 18:16:29;;;;;;;10.00;2.85;;;;;;;3.18;64.60;102460.69;5046325;28;20033;-75
2023/03/27 18:18:56;;;;;;;6.35;1.63;;;;;;;3.12;65.64;102466.47;5036024;28;20013;-76
2023/03/27 18:21:22;;;;;;;8.30;1.83;;;;;;;3.09;65.13;102475.81;5052847;28;20028;-73
2023/03/27 18:23:48;;;;;;;5.78;1.50;;;;;;;3.08;65.63;102476.63;5068483;28;20032;-76
2023/03/27 18:26:14;;;;;;;8.63;2.10;;;;;;;3.04;65.46;102474.72;5052098;28;20028;-77
2023/03/27 18:28:42;;;;;;;12.48;2.47;;;;;;;2.98;66.07;102472.72;5033801;28;20141;-76
2023/03/27 18:31:14;;;;;;;9.60;2.60;;;;;;;2.88;65.78;102474.00;5068890;28;20028;-75
2023/03/27 18:33:40;;;;;;;10.82;2.30;;;;;;;2.86;66.50;102492.88;5068972;28;20546;-76
2023/03/27 18:36:09;;;;;;;8.38;2.40;;;;;;;2.82;66.91;102488.41;5051311;28;20036;-76
2023/03/27 18:38:35;;;;;;;10.65;2.70;;;;;;;2.78;66.78;102485.63;5050951;28;20464;-77
2023/03/27 18:41:01;;;;;;;13.38;3.08;;;;;;;2.72;67.43;102487.06;5069686;28;20052;-76
2023/03/27 18:43:27;;;;;;;12.45;3.88;;;;;;;2.69;67.64;102487.81;5048477;28;20147;-77
2023/03/27 18:46:00;;;;;;;8.65;2.60;;;;;;;2.72;67.80;102497.44;5068202;28;20502;-76
2023/03/27 18:48:26;;;;;;;12.13;2.75;;;;;;;2.73;67.27;102501.75;5062266;28;20063;-76
2023/03/27 18:50:57;;;;;;;11.95;3.15;;;;;;;2.70;68.15;102493.84;5053138;28;20024;-76
2023/03/27 18:53:22;;;;;;;16.73;2.65;;;;;;;2.70;67.53;102502.53;5062927;28;20071;-75
2023/03/27 18:55:49;;;;;;;11.65;2.38;;;;;;;2.68;68.12;102505.84;5052529;28;20044;-77
2023/03/27 18:58:15;;;;;;;8.93;1.95;;;;;;;2.67;67.97;102510.16;5052109;28;20044;-75
2023/03/27 19:00:41;;;;;;;11.45;2.95;;;;;;;2.62;68.50;102506.44;5054119;28;20048;-76
2023/03/27 19:03:13;;;;;;;12.20;3.10;;;;;;;2.60;68.66;102508.06;5049410;28;20158;-76
2023/03/27 19:05:39;;;;;;;12.45;2.78;;;;;;;2.59;68.67;102511.50;5060852;28;20403;-75
2023/03/27 19:08:06;;;;;;;11.07;2.00;;;;;;;2.58;68.68;102512.28;5036206;28;20063;-76
2023/03/27 19:10:36;;;;;;;12.80;3.55;;;;;;;2.55;68.56;102514.72;5035983;28;20033;-76
2023/03/27 19:13:02;;;;;;;13.00;2.95;;;;;;;2.49;69.15;102515.31;5052090;28;20028;-77
2023/03/27 19:15:28;;;;;;;7.97;2.15;;;;;;;2.46;69.56;102517.78;5068148;28;20794;-77
2023/03/27 19:17:54;;;;;;;12.25;2.92;;;;;;;2.42;70.08;102524.47;5068249;28;20031;-76
2023/03/27 19:20:19;;;;;;;8.52;2.22;;;;;;;2.38;69.72;102519.97;5037922;28;20024;-77
2023/03/27 19:22:45;;;;;;;12.82;2.83;;;;;;;2.37;69.77;102518.22;5057770;28;20032;-76
2023/03/27 19:25:11;;;;;;;12.93;3.40;;;;;;;2.33;70.41;102523.13;5068937;28;20017;-76
2023/03/27 19:30:06;;;;;;;12.90;2.25;;;;;;;2.23;71.15;102514.06;5045756;28;20519;-75
2023/03/27 19:34:59;;;;;;;13.68;3.85;;;;;;;2.22;71.18;102526.09;5289986;22;20431;-70
2023/03/27 19:40:00;;;;;;;11.70;3.45;;;;;;;2.18;70.54;102521.56;5340456;22;20056;-75
2023/03/27 19:42:27;;;;;;;8.88;2.92;;;;;;;2.15;71.30;102525.72;5149452;22;20060;-69
2023/03/27 19:44:55;;;;;;;10.25;3.58;;;;;;;2.11;70.72;102516.03;5306921;22;20049;-68
2023/03/27 19:47:21;;;;;;;11.65;3.45;;;;;;;2.14;70.22;102521.34;5184642;22;20450;-68
2023/03/27 19:49:46;;;;;;;11.38;3.50;;;;;;;2.12;70.53;102517.81;5424702;22;20048;-69
2023/03/27 19:54:47;;;;;;;12.27;3.80;;;;;;;2.08;71.06;102522.84;5230876;22;20061;-70
2023/03/27 19:59:42;;;;;;;12.60;3.25;;;;;;;2.02;71.61;102532.84;5252804;22;20438;-69
2023/03/27 20:02:10;;;;;;;11.88;4.35;;;;;;;2.00;70.92;102531.03;5280403;22;20056;-75
2023/03/27 20:04:36;;;;;;;14.30;4.05;;;;;;;1.98;71.54;102530.91;5200908;22;20049;-76
2023/03/27 20:09:42;;;;;;;9.43;3.20;;;;;;;1.92;71.24;102530.63;5214512;22;20040;-70
2023/03/27 20:12:10;;;;;;;11.10;3.55;;;;;;;1.91;71.23;102531.41;5090706;23;20041;-76
2023/03/27 20:14:35;;;;;;;11.27;4.60;;;;;;;1.87;71.25;102534.69;5305788;22;20064;-75
2023/03/27 20:17:00;;;;;;;12.65;4.57;;;;;;;1.85;71.70;102533.69;5150631;22;20356;-69
2023/03/27 20:19:29;;;;;;;8.98;3.10;;;;;;;1.82;70.89;102538.72;5006338;28;20084;-69
2023/03/27 20:21:56;;;;;;;12.98;5.70;;;;;;;1.77;71.02;102529.81;5044233;23;20049;-69
2023/03/27 20:24:22;;;;;;;15.50;7.47;;;;;;;1.76;71.36;102533.25;5051311;28;20029;-68
2023/03/27 20:39:37;;;;;;;11.63;3.13;;;;;;;1.59;72.08;102546.16;5289681;22;20056;-68
2023/03/27 20:42:03;;;;;;;15.93;4.75;;;;;;;1.61;72.03;102543.66;5015779;28;20429;-71
2023/03/27 20:44:35;;;;;;;13.40;4.82;;;;;;;1.58;72.72;102549.56;5015869;28;20037;-71
2023/03/27 20:47:11;;;;;;;13.40;4.22;;;;;;;1.55;72.14;102539.94;5015044;28;20737;-71
2023/03/27 20:49:43;;;;;;;14.70;3.90;;;;;;;1.50;72.75;102543.97;5025746;28;20029;-72
2023/03/27 20:52:13;;;;;;;13.60;4.28;;;;;;;1.47;72.39;102543.81;5032441;28;20022;-71
2023/03/27 20:54:39;;;;;;;13.23;2.97;;;;;;;1.46;72.27;102554.94;5033351;28;20462;-72
2023/03/27 20:57:05;;;;;;;9.27;3.33;;;;;;;1.39;72.88;102550.25;5032249;28;20037;-71
2023/03/27 20:59:30;;;;;;;8.98;3.22;;;;;;;1.37;73.12;102550.19;4996379;28;20076;-71
2023/03/27 21:01:57;;;;;;;16.40;3.65;;;;;;;1.33;73.19;102549.94;5012375;28;20034;-72
2023/03/27 21:04:24;;;;;;;10.40;3.80;;;;;;;1.29;73.00;102558.34;5030796;28;20033;-72
2023/03/27 21:06:53;;;;;;;8.80;4.22;;;;;;;1.25;73.04;102553.81;4999968;28;20026;-72
2023/03/27 21:09:23;;;;;;;119.78;50.60;;;;;;;1.24;73.83;102552.94;5025694;28;20076;-69
2023/03/27 21:11:48;;;;;;;113.35;46.63;;;;;;;1.20;74.01;102556.16;5023085;28;20025;-69
2023/03/27 21:14:14;;;;;;;111.35;45.55;;;;;;;1.15;73.71;102562.75;4993134;28;20029;-70
2023/03/27 21:16:39;;;;;;;144.27;61.03;;;;;;;1.11;74.19;102561.69;5030564;28;20125;-70
2023/03/27 21:19:05;;;;;;;128.13;74.28;;;;;;;1.06;73.22;102555.38;5031649;28;20029;-77
2023/03/27 21:21:31;;;;;;;46.15;26.40;;;;;;;1.01;73.93;102564.59;5032247;28;20072;-78
2023/03/27 21:23:56;;;;;;;33.97;19.08;;;;;;;0.96;74.08;102568.59;5021316;28;20444;-77
2023/03/27 21:26:21;;;;;;;52.88;26.38;;;;;;;0.90;75.06;102563.97;5015803;28;20438;-77
2023/03/27 21:28:51;;;;;;;26.88;12.93;;;;;;;0.85;76.04;102570.59;5014827;28;20041;-77
2023/03/27 21:31:17;;;;;;;30.43;16.57;;;;;;;0.80;75.24;102572.00;5031782;28;20031;-77
2023/03/27 21:33:42;;;;;;;42.20;20.02;;;;;;;0.73;75.76;102569.91;5031390;28;20022;-77
2023/03/27 21:36:09;;;;;;;64.90;33.67;;;;;;;0.67;75.54;102573.00;5014781;28;20389;-70
2023/03/27 21:38:34;;;;;;;41.10;20.08;;;;;;;0.62;75.73;102580.50;4999232;28;20159;-70
2023/03/27 21:41:01;;;;;;;61.78;28.95;;;;;;;0.57;75.50;102581.03;5030680;28;20533;-70
2023/03/27 21:43:27;;;;;;;56.28;26.42;;;;;;;0.53;75.66;102574.78;5021419;28;20029;-70
2023/03/27 21:45:52;;;;;;;54.80;26.17;;;;;;;0.51;75.91;102573.84;5014797;28;20136;-70
2023/03/27 21:48:18;;;;;;;49.42;26.10;;;;;;;0.48;75.79;102576.25;5031411;28;20037;-70
2023/03/27 21:50:43;;;;;;;57.90;35.15;;;;;;;0.49;76.11;102575.44;4998641;28;20033;-69
2023/03/27 21:53:09;;;;;;;22.38;10.20;;;;;;;0.44;76.42;102577.75;5031415;28;20033;-69
2023/03/27 21:55:36;;;;;;;35.03;16.83;;;;;;;0.44;76.44;102580.31;5031303;28;20025;-70
2023/03/27 21:58:02;;;;;;;46.47;19.88;;;;;;;0.42;76.24;102584.50;5007674;28;20094;-70
2023/03/27 22:00:28;;;;;;;23.92;10.32;;;;;;;0.39;76.42;102570.53;5033898;28;20076;-69
2023/03/27 22:02:54;;;;;;;19.83;7.68;;;;;;;0.39;77.34;102583.44;4997824;28;20501;-69
2023/03/27 22:05:19;;;;;;;20.85;10.70;;;;;;;0.38;76.42;102579.97;4990579;28;20393;-70
2023/03/27 22:07:45;;;;;;;71.53;34.83;;;;;;;0.38;76.71;102576.53;5029708;28;20021;-69
2023/03/27 22:10:11;;;;;;;71.03;38.72;;;;;;;0.32;76.90;102580.50;4997399;28;20026;-70
2023/03/27 22:12:37;;;;;;;37.70;23.85;;;;;;;0.30;77.15;102582.13;5011881;28;20025;-70
2023/03/27 22:15:05;;;;;;;21.65;16.40;;;;;;;0.27;76.99;102591.34;5013929;28;20040;-69
2023/03/27 22:17:30;;;;;;;12.10;5.13;;;;;;;0.26;77.31;102582.75;5029372;28;20037;-69
2023/03/27 22:19:57;;;;;;;13.07;5.30;;;;;;;0.22;77.27;102585.94;5035155;28;21873;-70
2023/03/27 22:22:23;;;;;;;11.73;3.72;;;;;;;0.15;76.59;102581.22;5031159;28;20033;-70
2023/03/27 22:24:49;;;;;;;8.98;2.72;;;;;;;0.14;76.41;102584.59;5007277;28;20037;-70
2023/03/27 22:27:15;;;;;;;10.18;3.60;;;;;;;0.13;77.12;102595.69;5013818;28;20451;-69
2023/03/27 22:29:41;;;;;;;8.10;3.42;;;;;;;0.11;76.45;102589.56;5008925;28;20034;-69
2023/03/27 22:32:06;;;;;;;14.63;6.47;;;;;;;0.09;77.95;102596.34;5029544;28;20468;-69
2023/03/27 22:34:32;;;;;;;10.27;4.72;;;;;;;0.04;77.18;102595.16;5020711;28;20092;-69
2023/03/27 22:36:57;;;;;;;11.55;3.22;;;;;;;0.04;77.25;102597.72;5014295;28;20025;-69
2023/03/27 22:39:23;;;;;;;9.80;3.45;;;;;;;0.05;77.28;102602.09;4997284;28;20063;-69
2023/03/27 22:41:48;;;;;;;12.77;5.38;;;;;;;0.03;77.68;102606.25;4996772;28;20556;-69
2023/03/27 22:44:14;;;;;;;13.27;5.25;;;;;;;0.02;78.37;102609.66;5024914;28;20047;-70
2023/03/27 22:46:39;;;;;;;18.38;9.38;;;;;;;0.02;77.99;102614.81;4993951;28;20032;-70
2023/03/27 22:49:05;;;;;;;21.13;13.35;;;;;;;-0.02;78.38;102614.59;5007735;28;20055;-70
2023/03/27 22:51:31;;;;;;;27.65;14.48;;;;;;;-0.04;78.57;102617.91;5014101;28;20029;-70
2023/03/27 22:53:56;;;;;;;27.38;15.93;;;;;;;-0.10;78.80;102615.84;4997574;28;20060;-69
2023/03/27 22:56:22;;;;;;;12.85;6.07;;;;;;;-0.15;78.81;102617.25;5031004;28;20447;-76
2023/03/27 22:58:47;;;;;;;9.35;3.30;;;;;;;-0.24;79.10;102611.53;4997234;28;20071;-76
2023/03/27 23:01:13;;;;;;;8.10;2.80;;;;;;;-0.29;79.49;102618.09;5010812;28;20033;-76
2023/03/27 23:03:38;;;;;;;16.52;6.82;;;;;;;-0.35;79.76;102606.59;5009900;28;20025;-76
2023/03/27 23:06:04;;;;;;;12.07;5.45;;;;;;;-0.40;79.82;102610.59;5013902;28;20409;-76
2023/03/27 23:08:30;;;;;;;14.05;5.63;;;;;;;-0.47;79.35;102611.00;5012328;28;20140;-76
2023/03/27 23:11:00;;;;;;;16.33;5.00;;;;;;;-0.53;78.73;102615.78;5029435;28;20108;-77
2023/03/27 23:13:28;;;;;;;14.90;4.32;;;;;;;-0.52;79.31;102612.41;5027873;28;20088;-76
2023/03/27 23:15:54;;;;;;;13.95;6.47;;;;;;;-0.59;78.74;102617.97;5016858;28;20036;-76
2023/03/27 23:18:23;;;;;;;19.85;9.85;;;;;;;-0.60;80.41;102616.22;5033984;28;20041;-76
2023/03/27 23:20:59;;;;;;;11.77;3.60;;;;;;;-0.58;80.65;102614.59;5014705;28;20030;-76
2023/03/27 23:23:26;;;;;;;11.18;3.80;;;;;;;-0.60;81.06;102618.78;5030161;28;20492;-76
2023/03/27 23:25:52;;;;;;;9.00;2.85;;;;;;;-0.62;81.65;102617.78;5034606;28;20136;-76
2023/03/27 23:28:18;;;;;;;13.27;3.65;;;;;;;-0.63;82.17;102618.56;4996851;28;20472;-76
2023/03/27 23:31:12;;;;;;;13.48;3.55;;;;;;;-0.65;82.47;102615.91;4998244;28;20060;-76
2023/03/27 23:33:40;;;;;;;11.93;3.60;;;;;;;-0.67;83.03;102624.34;5021701;28;20037;-75
2023/03/27 23:36:11;;;;;;;9.27;3.90;;;;;;;-0.69;82.73;102621.66;5034264;28;20057;-76
2023/03/27 23:38:37;;;;;;;10.57;3.25;;;;;;;-0.71;82.95;102618.97;5032507;28;20377;-76
2023/03/27 23:41:05;;;;;;;10.13;4.07;;;;;;;-0.75;83.25;102631.56;5008552;28;20079;-76
2023/03/27 23:43:31;;;;;;;7.93;3.17;;;;;;;-0.77;82.68;102628.03;5017660;28;20079;-76
2023/03/27 23:46:00;;;;;;;6.70;2.83;;;;;;;-0.76;82.54;102632.34;4999094;28;20025;-76
2023/03/27 23:48:29;;;;;;;10.63;3.35;;;;;;;-0.82;83.37;102639.69;5026406;28;20385;-77
2023/03/27 23:50:56;;;;;;;14.13;3.10;;;;;;;-0.88;82.81;102640.19;5033898;28;20052;-77
2023/03/27 23:53:24;;;;;;;10.23;3.38;;;;;;;-0.94;83.15;102634.66;5031237;28;20030;-77
2023/03/27 23:55:50;;;;;;;12.95;3.60;;;;;;;-1.00;82.94;102640.31;5017079;28;20461;-77
2023/03/27 23:58:16;;;;;;;8.35;3.05;;;;;;;-1.05;83.05;102641.69;5033759;28;20112;-77
